Time;durP1;ratioP1;P1;durP2;ratioP2;P2;SDS_P1;SDS_P2;PMS_P1;PMS_P2;Temp;Humidity;BMP_temperature;BMP_pressure;BME280_temperature;BME280_humidity;BME280_pressure;Samples;Min_cycle;Max_cycle;Signal;HPM_P1;HPM_P2
2023/05/17 00:02:25;;;;;;;1.40;0.90;;;13.10;99.90;;;;;;1908815;74;21137;-84
2023/05/17 00:05:17;;;;;;;2.60;1.02;;;13.20;99.90;;;;;;1920841;74;21071;-83
2023/05/17 00:08:08;;;;;;;1.60;1.00;;;13.20;99.90;;;;;;1916100;74;21164;-83
2023/05/17 00:11:00;;;;;;;2.40;0.85;;;13.30;99.90;;;;;;1919007;74;21104;-83
2023/05/17 00:13:51;;;;;;;1.55;0.60;;;13.30;99.90;;;;;;1920308;74;21109;-83
2023/05/17 00:16:43;;;;;;;2.00;1.10;;;13.20;99.90;;;;;;1920906;74;21066;-84
2023/05/17 00:19:34;;;;;;;2.30;0.65;;;13.20;99.90;;;;;;1898753;74;21181;-85
2023/05/17 00:22:26;;;;;;;1.87;0.90;;;13.20;99.90;;;;;;1898537;75;21592;-85
2023/05/17 00:25:18;;;;;;;0.60;0.50;;;13.30;99.90;;;;;;1907966;74;21098;-84
2023/05/17 00:28:09;;;;;;;0.80;0.55;;;13.30;99.90;;;;;;1906282;74;21098;-82
2023/05/17 00:31:01;;;;;;;2.20;0.90;;;13.20;99.90;;;;;;1919885;74;21097;-82
2023/05/17 00:33:52;;;;;;;2.05;0.80;;;13.20;99.90;;;;;;1932132;74;21155;-85
2023/05/17 00:36:43;;;;;;;4.83;0.82;;;13.10;99.90;;;;;;1909736;74;21054;-83
2023/05/17 00:39:35;;;;;;;1.90;0.85;;;13.20;99.90;;;;;;1909624;74;21168;-83
2023/05/17 00:42:26;;;;;;;1.47;0.80;;;13.20;99.90;;;;;;1909953;74;21128;-83
2023/05/17 00:45:18;;;;;;;1.30;0.80;;;13.20;99.90;;;;;;1914812;74;21155;-83
2023/05/17 00:48:09;;;;;;;0.98;0.78;;;13.20;99.90;;;;;;1909814;74;21114;-83
2023/05/17 00:51:01;;;;;;;1.22;0.60;;;13.10;99.90;;;;;;1909949;74;21175;-83
2023/05/17 00:53:53;;;;;;;3.22;0.70;;;13.10;99.90;;;;;;1909780;74;21117;-83
2023/05/17 00:56:45;;;;;;;3.45;0.78;;;13.10;99.90;;;;;;1914261;74;21101;-83
2023/05/17 00:59:38;;;;;;;1.22;0.70;;;13.10;99.90;;;;;;1911576;74;21122;-83
2023/05/17 01:02:30;;;;;;;1.95;0.90;;;13.10;99.90;;;;;;1908808;74;21155;-83
2023/05/17 01:05:21;;;;;;;2.40;0.60;;;13.00;99.90;;;;;;1908209;74;21094;-83
2023/05/17 01:08:12;;;;;;;1.60;0.82;;;13.00;99.90;;;;;;1908453;74;21089;-83
2023/05/17 01:11:08;;;;;;;2.52;0.80;;;13.00;99.90;;;;;;1907683;75;21183;-83
2023/05/17 01:14:04;;;;;;;1.00;0.50;;;13.00;99.90;;;;;;1921413;74;21084;-84
2023/05/17 01:16:59;;;;;;;1.95;0.60;;;12.90;99.90;;;;;;1920938;74;21176;-83
2023/05/17 01:22:48;;;;;;;2.45;0.70;;;12.90;99.90;;;;;;1938761;72;22285;-83
2023/05/17 01:25:50;;;;;;;0.85;0.60;;;12.90;99.90;;;;;;1896550;75;21097;-83
2023/05/17 01:28:44;;;;;;;1.87;0.60;;;12.90;99.90;;;;;;1905084;75;21183;-83
2023/05/17 01:31:37;;;;;;;2.55;0.85;;;12.90;99.90;;;;;;1905836;75;21174;-83
2023/05/17 01:34:29;;;;;;;3.02;0.72;;;12.90;99.90;;;;;;1905722;75;21113;-82
2023/05/17 01:37:21;;;;;;;1.22;0.60;;;12.90;99.90;;;;;;1901729;75;21200;-84
2023/05/17 01:40:13;;;;;;;1.90;0.80;;;12.90;99.90;;;;;;1883952;75;21088;-84
2023/05/17 01:43:08;;;;;;;1.32;0.80;;;12.90;99.90;;;;;;1890901;75;21153;-83
2023/05/17 01:46:06;;;;;;;2.17;0.70;;;12.90;99.90;;;;;;1893633;75;21122;-83
2023/05/17 01:49:02;;;;;;;2.40;0.82;;;12.80;99.90;;;;;;1895064;75;21182;-83
2023/05/17 01:51:57;;;;;;;1.20;0.60;;;12.90;99.90;;;;;;1901487;75;21488;-84
2023/05/17 01:54:52;;;;;;;1.82;0.90;;;12.80;99.90;;;;;;1906252;74;21121;-83
2023/05/17 01:57:45;;;;;;;2.80;0.75;;;12.70;99.90;;;;;;1909752;75;21147;-84
2023/05/17 02:00:38;;;;;;;1.55;0.70;;;12.80;99.90;;;;;;1891258;75;21122;-84
2023/05/17 02:03:30;;;;;;;5.97;2.02;;;12.70;99.90;;;;;;1903711;75;21114;-84
2023/05/17 02:06:22;;;;;;;2.00;0.68;;;12.70;99.90;;;;;;1898859;75;21118;-83
2023/05/17 02:09:13;;;;;;;3.55;0.60;;;12.70;99.90;;;;;;1885118;75;21198;-83
2023/05/17 02:12:05;;;;;;;3.72;0.72;;;12.70;99.90;;;;;;1887883;75;21178;-82
2023/05/17 02:14:57;;;;;;;1.15;0.80;;;12.70;99.90;;;;;;1895616;75;21160;-85
2023/05/17 02:17:49;;;;;;;1.42;0.70;;;12.80;99.90;;;;;;1883922;75;21107;-84
2023/05/17 02:20:41;;;;;;;1.47;0.62;;;12.80;99.90;;;;;;1894256;75;21087;-84
2023/05/17 02:23:32;;;;;;;2.85;0.57;;;12.80;99.90;;;;;;1882993;74;21163;-83
2023/05/17 02:26:23;;;;;;;1.90;0.70;;;12.70;99.90;;;;;;1895188;75;21096;-83
2023/05/17 02:29:15;;;;;;;0.80;0.40;;;12.70;99.90;;;;;;1888095;75;21502;-83
2023/05/17 02:32:08;;;;;;;1.32;0.60;;;12.60;99.90;;;;;;1904950;75;21106;-83
2023/05/17 02:35:00;;;;;;;2.55;0.80;;;12.70;99.90;;;;;;1892516;75;21207;-84
2023/05/17 02:37:51;;;;;;;1.25;0.47;;;12.50;99.90;;;;;;1872321;75;21131;-84
2023/05/17 02:40:44;;;;;;;1.98;0.60;;;12.40;99.90;;;;;;1884853;75;21126;-84
2023/05/17 02:43:36;;;;;;;1.75;0.62;;;12.30;99.90;;;;;;1896712;75;21091;-83
2023/05/17 02:46:27;;;;;;;1.77;0.80;;;12.40;99.90;;;;;;1885842;75;21207;-83
2023/05/17 02:49:19;;;;;;;1.72;0.72;;;12.40;99.90;;;;;;1908292;75;21106;-83
2023/05/17 02:52:10;;;;;;;2.55;0.78;;;12.40;99.90;;;;;;1896310;75;21184;-83
2023/05/17 02:55:03;;;;;;;2.12;0.90;;;12.40;99.90;;;;;;1885982;75;21095;-83
2023/05/17 02:57:54;;;;;;;4.20;0.90;;;12.30;99.90;;;;;;1882248;75;21099;-83
2023/05/17 03:03:26;;;;;;;1.50;0.68;;;12.10;99.90;;;;;;1954905;72;22189;-85
2023/05/17 03:06:17;;;;;;;1.95;0.80;;;12.10;99.90;;;;;;1916738;75;21148;-83
2023/05/17 03:09:09;;;;;;;1.95;0.68;;;12.10;99.90;;;;;;1915768;75;21255;-83
2023/05/17 03:12:01;;;;;;;2.15;1.20;;;12.10;99.90;;;;;;1919285;73;21604;-83
2023/05/17 03:14:54;;;;;;;3.12;0.80;;;12.10;99.90;;;;;;1934887;74;21051;-83
2023/05/17 03:17:46;;;;;;;2.02;0.70;;;12.10;99.90;;;;;;1926328;74;21102;-83
2023/05/17 03:20:39;;;;;;;2.92;0.70;;;12.10;99.90;;;;;;1939670;73;21101;-85
2023/05/17 03:23:30;;;;;;;3.05;0.90;;;12.00;99.90;;;;;;1916576;75;21225;-83
2023/05/17 03:26:23;;;;;;;1.72;0.70;;;12.00;99.90;;;;;;1916767;75;21095;-83
2023/05/17 03:29:15;;;;;;;3.02;0.70;;;12.00;99.90;;;;;;1916781;75;21094;-84
2023/05/17 03:32:08;;;;;;;1.27;0.70;;;11.90;99.90;;;;;;1928772;73;21098;-83
2023/05/17 03:34:59;;;;;;;5.72;1.02;;;12.00;99.90;;;;;;1920557;73;21169;-83
2023/05/17 03:37:50;;;;;;;3.70;0.72;;;11.90;99.90;;;;;;1938729;73;21189;-83
2023/05/17 03:40:42;;;;;;;3.87;0.62;;;11.90;99.90;;;;;;1916691;75;21149;-83
2023/05/17 03:43:33;;;;;;;1.98;0.70;;;11.90;99.90;;;;;;1930802;73;21097;-83
2023/05/17 03:46:25;;;;;;;1.90;0.65;;;11.90;99.90;;;;;;1919257;73;21382;-83
2023/05/17 03:49:16;;;;;;;2.52;0.78;;;11.90;99.90;;;;;;1916569;75;21114;-83
2023/05/17 03:52:08;;;;;;;2.65;0.80;;;11.90;99.90;;;;;;1937051;73;21106;-83
2023/05/17 03:55:00;;;;;;;1.82;0.80;;;11.90;99.90;;;;;;1934333;73;21098;-85
2023/05/17 03:57:53;;;;;;;3.33;0.93;;;11.80;99.90;;;;;;1916660;73;21106;-84
2023/05/17 04:00:44;;;;;;;1.05;0.47;;;11.80;99.90;;;;;;1916549;73;21159;-84
2023/05/17 04:03:37;;;;;;;3.75;0.72;;;11.80;99.90;;;;;;1851047;76;21142;-83
2023/05/17 04:06:28;;;;;;;1.60;0.78;;;11.70;99.90;;;;;;1899620;75;21642;-83
2023/05/17 04:09:20;;;;;;;2.77;0.90;;;11.80;99.90;;;;;;1888109;75;21154;-83
2023/05/17 04:12:11;;;;;;;2.05;0.70;;;11.80;99.90;;;;;;1889351;75;21639;-83
2023/05/17 04:15:03;;;;;;;1.25;0.70;;;11.70;99.90;;;;;;1866952;77;21114;-85
2023/05/17 04:17:55;;;;;;;3.72;1.10;;;11.70;99.90;;;;;;1868021;77;21118;-83
2023/05/17 04:20:47;;;;;;;2.20;0.72;;;11.70;99.90;;;;;;1866671;77;21175;-83
2023/05/17 04:23:40;;;;;;;0.90;0.57;;;11.60;99.90;;;;;;1888522;75;21067;-83
2023/05/17 04:26:32;;;;;;;3.60;1.07;;;11.70;99.90;;;;;;1868994;77;21115;-84
2023/05/17 04:29:26;;;;;;;2.02;1.12;;;11.60;99.90;;;;;;1868389;77;21095;-84
2023/05/17 04:32:18;;;;;;;1.07;0.60;;;11.50;99.90;;;;;;1866421;77;21108;-83
2023/05/17 04:35:11;;;;;;;3.77;0.80;;;11.60;99.90;;;;;;1866074;77;21152;-83
2023/05/17 04:38:04;;;;;;;3.00;0.90;;;11.50;99.90;;;;;;1866989;77;21090;-84
2023/05/17 04:41:03;;;;;;;3.92;0.62;;;11.60;99.90;;;;;;1867948;77;21127;-83
2023/05/17 04:43:57;;;;;;;2.27;0.80;;;11.50;99.90;;;;;;1867016;77;21178;-83
2023/05/17 04:46:49;;;;;;;1.50;0.62;;;11.50;99.90;;;;;;1880132;75;21114;-83
2023/05/17 04:49:42;;;;;;;3.47;0.70;;;11.40;99.90;;;;;;1871314;75;21147;-83
2023/05/17 04:52:33;;;;;;;2.50;1.00;;;11.50;99.90;;;;;;1869290;77;21621;-83
2023/05/17 04:55:25;;;;;;;2.27;0.80;;;11.40;99.90;;;;;;1868114;77;21110;-83
2023/05/17 04:58:17;;;;;;;2.10;0.82;;;11.40;99.90;;;;;;1867399;77;21896;-83
2023/05/17 05:01:10;;;;;;;6.08;1.45;;;11.30;99.90;;;;;;1887869;75;21408;-83
2023/05/17 05:04:05;;;;;;;2.70;1.05;;;11.30;99.90;;;;;;1888331;75;21200;-83
2023/05/17 05:06:59;;;;;;;3.98;1.22;;;11.30;99.90;;;;;;1866677;76;21425;-84
2023/05/17 05:09:52;;;;;;;2.60;0.62;;;11.30;99.90;;;;;;1885192;75;21142;-83
2023/05/17 05:12:44;;;;;;;2.87;1.07;;;11.30;99.90;;;;;;1847013;77;21106;-83
2023/05/17 05:15:37;;;;;;;3.50;0.50;;;11.40;99.90;;;;;;1857305;77;21126;-84
2023/05/17 05:18:29;;;;;;;2.27;0.93;;;11.30;99.90;;;;;;1868591;77;21118;-84
2023/05/17 05:21:23;;;;;;;1.62;0.78;;;11.20;99.90;;;;;;1868701;77;21134;-83
2023/05/17 05:26:55;;;;;;;1.62;0.60;;;11.10;99.90;;;;;;1944107;72;22228;-85
2023/05/17 05:29:48;;;;;;;3.08;1.15;;;11.10;99.90;;;;;;1905548;75;21098;-83
2023/05/17 05:32:40;;;;;;;2.20;0.95;;;11.10;99.90;;;;;;1904636;75;21282;-83
2023/05/17 05:35:32;;;;;;;3.87;1.10;;;11.00;99.90;;;;;;1899295;75;21167;-83
2023/05/17 05:38:23;;;;;;;3.37;1.00;;;11.10;99.90;;;;;;1905882;75;21137;-83
2023/05/17 05:41:15;;;;;;;2.65;0.88;;;11.10;99.90;;;;;;1905515;75;21440;-86
2023/05/17 05:44:07;;;;;;;2.80;1.10;;;11.10;99.90;;;;;;1905946;75;21523;-84
2023/05/17 05:46:59;;;;;;;3.02;0.78;;;11.00;99.90;;;;;;1898390;75;21115;-83
2023/05/17 05:49:50;;;;;;;1.87;0.57;;;11.00;99.90;;;;;;1886218;75;21102;-83
2023/05/17 05:52:42;;;;;;;2.60;1.05;;;11.00;99.90;;;;;;1895530;75;21103;-84
2023/05/17 05:55:34;;;;;;;3.83;0.90;;;10.90;99.90;;;;;;1894511;75;21632;-83
2023/05/17 05:58:29;;;;;;;3.33;1.37;;;10.90;99.90;;;;;;1897182;75;21097;-83
2023/05/17 06:01:21;;;;;;;2.05;0.70;;;10.90;99.90;;;;;;1897974;75;21078;-83
2023/05/17 06:04:12;;;;;;;1.80;0.75;;;10.90;99.90;;;;;;1894694;75;21193;-83
2023/05/17 06:07:07;;;;;;;3.30;1.22;;;10.90;99.90;;;;;;1911992;73;21109;-84
2023/05/17 06:09:58;;;;;;;3.27;1.02;;;11.00;99.90;;;;;;1891156;75;21118;-83
2023/05/17 06:12:49;;;;;;;2.55;1.00;;;11.00;99.90;;;;;;1897470;75;21107;-84
2023/05/17 06:15:41;;;;;;;0.62;0.42;;;10.90;99.90;;;;;;1894157;75;21325;-84
2023/05/17 06:18:33;;;;;;;5.42;0.98;;;10.90;99.90;;;;;;1889850;75;21112;-84
2023/05/17 06:21:25;;;;;;;4.42;0.80;;;10.90;99.90;;;;;;1903737;75;21727;-83
2023/05/17 06:24:18;;;;;;;2.00;0.80;;;10.90;99.90;;;;;;1899323;75;21126;-83
2023/05/17 06:27:09;;;;;;;1.77;0.60;;;10.90;99.90;;;;;;1912755;74;21127;-84
2023/05/17 06:30:02;;;;;;;2.35;0.82;;;10.90;99.90;;;;;;1899812;74;21083;-83
2023/05/17 06:35:37;;;;;;;2.60;0.85;;;10.90;99.90;;;;;;1957576;72;22159;-85
2023/05/17 06:38:30;;;;;;;4.08;0.93;;;11.00;99.90;;;;;;1884009;75;21129;-85
2023/05/17 06:41:21;;;;;;;3.50;1.00;;;11.00;99.90;;;;;;1898650;75;21090;-83
2023/05/17 06:44:13;;;;;;;2.20;0.50;;;11.00;99.90;;;;;;1894043;75;21526;-84
2023/05/17 06:47:06;;;;;;;3.50;0.75;;;11.10;99.90;;;;;;1890419;75;21067;-83
2023/05/17 06:49:58;;;;;;;5.17;0.95;;;11.00;99.90;;;;;;1884989;75;21148;-83
2023/05/17 06:52:49;;;;;;;3.22;0.95;;;11.10;99.90;;;;;;1882880;75;21052;-84
2023/05/17 06:55:41;;;;;;;1.62;0.70;;;11.00;99.90;;;;;;1883096;75;21200;-84
2023/05/17 06:58:34;;;;;;;2.65;0.70;;;11.10;99.90;;;;;;1898138;75;21107;-84
2023/05/17 07:01:27;;;;;;;2.50;0.90;;;11.10;99.90;;;;;;1886584;75;22297;-84
2023/05/17 07:04:19;;;;;;;4.72;0.80;;;11.10;99.90;;;;;;1883164;75;21044;-83
2023/05/17 07:07:13;;;;;;;2.25;0.90;;;11.10;99.90;;;;;;1883094;75;21149;-83
2023/05/17 07:10:04;;;;;;;3.05;0.75;;;11.00;99.90;;;;;;1904582;75;21064;-83
2023/05/17 07:12:56;;;;;;;4.58;0.80;;;11.10;99.90;;;;;;1888877;75;21099;-84
2023/05/17 07:15:47;;;;;;;3.60;1.07;;;11.10;99.90;;;;;;1883179;75;21205;-83
2023/05/17 07:18:41;;;;;;;1.95;0.53;;;11.10;99.90;;;;;;1877684;75;21535;-83
2023/05/17 07:24:12;;;;;;;2.72;0.62;;;11.10;99.90;;;;;;1954730;72;22237;-83
2023/05/17 07:27:04;;;;;;;6.05;0.90;;;11.20;99.90;;;;;;1895133;74;21080;-83
2023/05/17 07:29:55;;;;;;;4.15;0.78;;;11.10;99.90;;;;;;1894989;75;21106;-84
2023/05/17 07:32:47;;;;;;;3.10;1.07;;;11.10;99.90;;;;;;1895275;75;21636;-84
2023/05/17 07:35:39;;;;;;;2.10;0.70;;;11.00;99.90;;;;;;1900903;75;21134;-84
2023/05/17 07:38:30;;;;;;;3.77;0.93;;;11.10;99.90;;;;;;1904876;75;21083;-83
2023/05/17 07:41:22;;;;;;;3.37;1.12;;;11.20;99.90;;;;;;1913054;75;21105;-84
2023/05/17 07:44:13;;;;;;;1.35;0.68;;;11.10;99.90;;;;;;1894523;75;21170;-82
2023/05/17 07:47:05;;;;;;;2.90;1.00;;;11.00;99.90;;;;;;1898639;75;21114;-83
2023/05/17 07:49:57;;;;;;;3.10;0.75;;;11.00;99.90;;;;;;1897153;75;21082;-84
2023/05/17 07:52:48;;;;;;;2.75;0.57;;;11.10;99.90;;;;;;1894720;75;21172;-84
2023/05/17 07:55:41;;;;;;;2.42;0.90;;;11.10;99.90;;;;;;1894743;75;21142;-84
2023/05/17 07:58:33;;;;;;;3.12;0.85;;;11.10;99.90;;;;;;1897284;75;21208;-84
2023/05/17 08:01:24;;;;;;;6.30;1.42;;;11.10;99.90;;;;;;1884500;75;21086;-84
2023/05/17 08:04:16;;;;;;;3.02;1.00;;;11.10;99.90;;;;;;1883952;75;21173;-83
2023/05/17 08:07:07;;;;;;;1.70;1.00;;;11.00;99.90;;;;;;1883903;75;21218;-84
2023/05/17 08:10:00;;;;;;;4.10;1.50;;;11.10;99.90;;;;;;1883983;75;21597;-84
2023/05/17 08:12:52;;;;;;;3.85;1.10;;;11.10;99.90;;;;;;1898962;75;21126;-83
2023/05/17 08:15:44;;;;;;;2.02;0.93;;;11.20;99.90;;;;;;1894452;75;21090;-83
2023/05/17 08:18:36;;;;;;;2.95;1.02;;;11.10;99.90;;;;;;1894692;75;21066;-84
2023/05/17 08:21:29;;;;;;;1.95;0.90;;;11.10;99.90;;;;;;1895039;75;21109;-83
2023/05/17 08:24:20;;;;;;;3.42;0.93;;;11.30;99.90;;;;;;1899645;74;21070;-83
2023/05/17 08:27:12;;;;;;;2.35;0.75;;;11.30;99.90;;;;;;1896063;75;21156;-83
2023/05/17 08:30:03;;;;;;;3.10;0.80;;;11.30;99.90;;;;;;1894682;75;21175;-84
2023/05/17 08:32:56;;;;;;;2.45;1.00;;;11.30;99.90;;;;;;1894681;75;21124;-84
2023/05/17 08:35:51;;;;;;;3.12;1.00;;;11.30;99.90;;;;;;1897266;75;21177;-84
2023/05/17 08:38:43;;;;;;;2.25;0.90;;;11.30;99.90;;;;;;1897133;75;21175;-83
2023/05/17 08:41:34;;;;;;;1.72;0.75;;;11.40;99.90;;;;;;1894310;75;21121;-83
2023/05/17 08:44:29;;;;;;;2.72;0.70;;;11.30;99.90;;;;;;1894324;75;21110;-83
2023/05/17 08:47:32;;;;;;;2.05;0.90;;;11.30;99.90;;;;;;1894757;75;21164;-84
2023/05/17 08:50:22;;;;;;;4.72;1.37;;;11.30;99.90;;;;;;1901300;75;21183;-83
2023/05/17 08:53:15;;;;;;;3.10;0.93;;;11.30;99.90;;;;;;1903726;75;21139;-84
2023/05/17 08:56:07;;;;;;;4.22;1.15;;;11.30;99.90;;;;;;1905940;75;21184;-84
2023/05/17 08:59:00;;;;;;;3.35;1.00;;;11.20;99.90;;;;;;1905789;75;21103;-84
2023/05/17 09:01:53;;;;;;;3.80;0.98;;;11.20;99.90;;;;;;1883548;76;21114;-83
2023/05/17 09:04:45;;;;;;;2.30;1.10;;;11.20;99.90;;;;;;1883552;76;21099;-83
2023/05/17 09:07:37;;;;;;;2.65;1.00;;;11.30;99.90;;;;;;1881159;75;21095;-83
2023/05/17 09:10:30;;;;;;;2.05;1.17;;;11.30;99.90;;;;;;1882319;75;21110;-84
2023/05/17 09:13:21;;;;;;;6.10;2.15;;;11.30;99.90;;;;;;1882769;75;21111;-84
2023/05/17 09:16:19;;;;;;;2.42;1.00;;;11.30;99.90;;;;;;1888117;75;21194;-82
2023/05/17 09:19:12;;;;;;;4.85;1.52;;;11.30;99.90;;;;;;1883839;75;21088;-84
2023/05/17 09:22:04;;;;;;;3.58;1.40;;;11.30;99.90;;;;;;1894223;75;21102;-85
2023/05/17 09:24:58;;;;;;;4.53;1.27;;;11.40;99.90;;;;;;1896253;75;21193;-84
2023/05/17 09:27:56;;;;;;;3.40;1.20;;;11.40;99.90;;;;;;1920353;74;21082;-83
2023/05/17 09:30:49;;;;;;;2.83;1.05;;;11.40;99.90;;;;;;1909766;74;21108;-85
2023/05/17 09:33:46;;;;;;;3.37;1.27;;;11.50;99.90;;;;;;1904519;74;21084;-84
2023/05/17 09:36:42;;;;;;;3.27;1.20;;;11.50;99.90;;;;;;1895629;74;21090;-83
2023/05/17 09:39:36;;;;;;;1.82;1.07;;;11.60;99.90;;;;;;1918251;74;21146;-85
2023/05/17 09:42:28;;;;;;;2.90;1.27;;;11.50;99.90;;;;;;1905084;74;21152;-84
2023/05/17 09:45:25;;;;;;;3.40;0.98;;;11.60;99.90;;;;;;1892681;74;21127;-83
2023/05/17 09:48:21;;;;;;;3.37;1.10;;;11.60;99.90;;;;;;1892971;76;21122;-83
2023/05/17 09:51:15;;;;;;;2.47;0.98;;;11.70;99.90;;;;;;1915224;74;21111;-83
2023/05/17 09:54:09;;;;;;;3.47;1.05;;;11.70;99.90;;;;;;1892585;76;21101;-83
2023/05/17 09:57:08;;;;;;;1.80;0.98;;;11.70;99.90;;;;;;1912631;74;21102;-83
2023/05/17 10:00:00;;;;;;;1.30;0.57;;;11.80;99.90;;;;;;1910245;74;21190;-83
2023/05/17 10:02:56;;;;;;;2.15;0.98;;;11.80;99.90;;;;;;1892762;76;21110;-84
2023/05/17 10:05:54;;;;;;;2.90;0.90;;;11.80;99.90;;;;;;1914764;74;21066;-84
2023/05/17 10:08:51;;;;;;;4.37;1.00;;;11.80;99.90;;;;;;1914896;74;21101;-83
2023/05/17 10:11:46;;;;;;;3.52;0.90;;;11.80;99.90;;;;;;1915065;74;21125;-83
2023/05/17 10:14:42;;;;;;;2.42;1.02;;;11.90;99.90;;;;;;1908571;74;21631;-85
2023/05/17 10:17:40;;;;;;;3.10;0.85;;;11.90;99.90;;;;;;1905957;74;21066;-83
2023/05/17 10:20:33;;;;;;;2.08;1.05;;;11.90;99.90;;;;;;1903793;74;21556;-85
2023/05/17 10:23:30;;;;;;;3.70;1.27;;;11.90;99.90;;;;;;1903518;74;21215;-85
2023/05/17 10:26:26;;;;;;;3.17;1.15;;;11.90;99.90;;;;;;1908466;74;21172;-83
2023/05/17 10:29:21;;;;;;;4.50;1.05;;;12.00;99.90;;;;;;1932752;74;21135;-83
2023/05/17 10:32:16;;;;;;;2.72;1.00;;;12.00;99.90;;;;;;1913512;74;21101;-83
2023/05/17 10:35:13;;;;;;;2.40;0.90;;;12.10;99.90;;;;;;1910272;74;21054;-83
2023/05/17 10:38:08;;;;;;;4.10;1.15;;;12.10;99.90;;;;;;1909962;74;21160;-83
2023/05/17 10:41:05;;;;;;;4.10;1.20;;;12.10;99.90;;;;;;1910131;74;21123;-84
2023/05/17 10:44:06;;;;;;;2.25;1.05;;;12.10;99.90;;;;;;1917094;74;21128;-83
2023/05/17 10:47:00;;;;;;;2.58;0.75;;;12.30;99.90;;;;;;1916469;74;21158;-83
2023/05/17 10:49:58;;;;;;;1.92;1.00;;;12.30;99.90;;;;;;1899437;74;21103;-83
2023/05/17 10:52:54;;;;;;;3.22;0.78;;;12.30;99.90;;;;;;1899343;75;21166;-84
2023/05/17 10:55:51;;;;;;;3.33;0.80;;;12.30;99.90;;;;;;1924479;74;21094;-85
2023/05/17 10:58:48;;;;;;;1.50;1.12;;;12.30;99.90;;;;;;1911623;74;21171;-83
2023/05/17 11:02:04;;;;;;;3.17;1.00;;;12.40;99.90;;;;;;1899427;75;21074;-83
2023/05/17 11:05:00;;;;;;;3.87;0.88;;;12.30;99.90;;;;;;1917087;74;21109;-83
2023/05/17 11:07:56;;;;;;;4.50;0.85;;;12.40;99.90;;;;;;1918221;74;21573;-83
2023/05/17 11:14:08;;;;;;;1.77;0.95;;;12.40;99.90;;;;;;1941198;72;22216;-85
2023/05/17 11:16:59;;;;;;;2.45;1.02;;;12.40;99.90;;;;;;1917096;75;21484;-83
2023/05/17 11:20:04;;;;;;;1.90;0.93;;;12.40;99.90;;;;;;1916895;75;21101;-85
2023/05/17 11:22:58;;;;;;;5.58;1.07;;;12.40;99.90;;;;;;1916881;75;21063;-83
2023/05/17 11:25:51;;;;;;;3.50;1.10;;;12.40;99.90;;;;;;1916903;75;21570;-83
2023/05/17 11:28:44;;;;;;;4.90;1.45;;;12.40;99.90;;;;;;1917076;75;21062;-83
2023/05/17 11:31:38;;;;;;;4.03;1.00;;;12.50;99.90;;;;;;1916806;75;21060;-83
2023/05/17 11:37:13;;;;;;;1.45;0.95;;;12.60;99.90;;;;;;1955099;72;22632;-85
2023/05/17 11:40:09;;;;;;;4.10;1.00;;;12.50;99.90;;;;;;1895086;74;21083;-84
2023/05/17 11:43:17;;;;;;;1.50;0.75;;;12.60;99.90;;;;;;1911306;75;21530;-84
2023/05/17 11:46:13;;;;;;;1.92;0.80;;;12.60;99.90;;;;;;1906193;75;21235;-84
2023/05/17 11:49:07;;;;;;;1.60;0.70;;;12.60;99.90;;;;;;1906443;75;21067;-84
2023/05/17 11:52:00;;;;;;;2.77;1.10;;;12.70;99.90;;;;;;1883968;76;21124;-84
2023/05/17 11:54:53;;;;;;;2.45;0.90;;;12.70;99.90;;;;;;1884244;76;21151;-84
2023/05/17 11:57:49;;;;;;;2.58;1.40;;;12.80;99.90;;;;;;1888847;75;21101;-84
2023/05/17 12:03:35;;;;;;;3.67;1.07;;;12.80;99.90;;;;;;1952887;72;22369;-84
2023/05/17 12:06:27;;;;;;;3.02;0.80;;;12.90;99.90;;;;;;1903701;74;21157;-83
2023/05/17 12:09:19;;;;;;;2.62;1.07;;;12.90;99.90;;;;;;1883643;75;21136;-84
2023/05/17 12:12:12;;;;;;;3.20;0.90;;;13.00;99.90;;;;;;1883559;75;21163;-83
2023/05/17 12:15:03;;;;;;;2.37;1.00;;;13.00;99.90;;;;;;1906432;75;21094;-83
2023/05/17 12:17:56;;;;;;;4.65;1.10;;;13.00;99.90;;;;;;1901862;75;21135;-83
2023/05/17 12:20:58;;;;;;;4.62;1.30;;;13.10;99.90;;;;;;1884106;75;21255;-83
2023/05/17 12:23:51;;;;;;;3.75;1.35;;;13.10;99.90;;;;;;1894286;75;21114;-83
2023/05/17 12:26:47;;;;;;;4.25;1.25;;;13.10;99.90;;;;;;1895078;75;21168;-83
2023/05/17 12:29:39;;;;;;;5.45;1.02;;;13.10;99.90;;;;;;1894900;75;21094;-83
2023/05/17 12:32:34;;;;;;;1.90;0.95;;;13.20;99.90;;;;;;1898239;75;21165;-84
2023/05/17 12:35:26;;;;;;;4.53;0.98;;;13.20;99.90;;;;;;1883997;75;21065;-84
2023/05/17 12:38:17;;;;;;;3.25;1.00;;;13.30;99.90;;;;;;1883924;75;21133;-82
2023/05/17 12:41:11;;;;;;;2.52;0.78;;;13.30;99.90;;;;;;1906025;75;21168;-84
2023/05/17 12:44:03;;;;;;;3.12;1.20;;;13.40;99.90;;;;;;1884184;76;21115;-84
2023/05/17 12:46:56;;;;;;;2.37;1.10;;;13.40;99.90;;;;;;1884302;76;21110;-83
2023/05/17 12:49:54;;;;;;;3.75;1.00;;;13.50;99.90;;;;;;1896567;75;21160;-85
2023/05/17 12:52:48;;;;;;;4.55;1.17;;;13.60;99.90;;;;;;1895192;75;21096;-83
2023/05/17 12:55:39;;;;;;;4.22;1.02;;;13.60;99.90;;;;;;1894821;75;21122;-83
2023/05/17 12:58:31;;;;;;;3.75;0.93;;;13.60;99.90;;;;;;1896534;75;21092;-83
2023/05/17 13:01:22;;;;;;;5.00;1.10;;;13.70;99.90;;;;;;1899353;75;21128;-83
2023/05/17 13:04:15;;;;;;;2.17;1.00;;;13.70;99.90;;;;;;1895545;75;21099;-83
2023/05/17 13:07:06;;;;;;;3.10;0.98;;;13.70;99.90;;;;;;1893721;75;21052;-83
2023/05/17 13:09:58;;;;;;;2.65;1.27;;;13.90;99.90;;;;;;1871940;76;21111;-84
2023/05/17 13:12:57;;;;;;;2.75;1.30;;;13.90;99.90;;;;;;1887159;75;21106;-83
2023/05/17 13:15:49;;;;;;;3.12;1.17;;;13.90;99.90;;;;;;1883133;75;21111;-84
2023/05/17 13:18:51;;;;;;;2.75;1.12;;;13.90;99.90;;;;;;1882452;75;21164;-83
2023/05/17 13:21:43;;;;;;;5.37;1.55;;;14.00;99.90;;;;;;1879217;75;21099;-84
2023/05/17 13:24:39;;;;;;;4.30;1.10;;;14.00;99.90;;;;;;1904694;75;21135;-83
2023/05/17 13:27:31;;;;;;;3.27;1.10;;;13.90;99.90;;;;;;1887887;75;21117;-83
2023/05/17 13:30:23;;;;;;;2.42;1.25;;;13.90;99.90;;;;;;1882672;75;21110;-84
2023/05/17 13:33:34;;;;;;;;;;;;;;;;;;;;;
2023/05/17 13:36:38;;;;;;;2.60;1.27;;;14.00;99.90;;;;;;1894051;75;21151;-83
2023/05/17 13:39:32;;;;;;;2.20;1.10;;;13.90;99.90;;;;;;1882139;75;21110;-83
2023/05/17 13:42:24;;;;;;;5.10;1.27;;;14.00;99.90;;;;;;1883374;75;21212;-83
2023/05/17 13:45:16;;;;;;;3.05;1.12;;;14.10;99.90;;;;;;1886986;75;21597;-83
2023/05/17 13:48:08;;;;;;;1.57;0.95;;;14.10;99.90;;;;;;1882109;75;21123;-83
2023/05/17 13:51:00;;;;;;;3.10;1.10;;;14.20;99.90;;;;;;1882127;75;21098;-83
2023/05/17 13:53:53;;;;;;;4.12;1.12;;;14.30;99.90;;;;;;1882213;75;21161;-83
2023/05/17 13:56:45;;;;;;;3.10;0.93;;;14.30;99.90;;;;;;1886752;75;21554;-83
2023/05/17 13:59:36;;;;;;;3.10;0.98;;;14.30;99.90;;;;;;1883964;75;21158;-83
2023/05/17 14:02:28;;;;;;;2.85;1.02;;;14.40;99.90;;;;;;1881124;75;21124;-84
2023/05/17 14:05:19;;;;;;;6.25;1.12;;;14.50;99.90;;;;;;1882250;74;21192;-84
2023/05/17 14:08:11;;;;;;;4.22;1.55;;;14.50;99.90;;;;;;1886459;75;21110;-84
2023/05/17 14:11:03;;;;;;;2.10;0.98;;;14.50;99.90;;;;;;1871766;77;21157;-83
2023/05/17 14:13:59;;;;;;;3.15;1.10;;;14.60;99.90;;;;;;1905613;75;21143;-83
2023/05/17 14:16:51;;;;;;;2.33;1.00;;;14.70;99.90;;;;;;1896613;75;21160;-83
2023/05/17 14:19:43;;;;;;;1.72;1.10;;;14.70;99.90;;;;;;1896115;75;21118;-83
2023/05/17 14:22:35;;;;;;;3.15;1.15;;;14.70;99.90;;;;;;1883309;76;21138;-83
2023/05/17 14:25:27;;;;;;;2.85;1.17;;;14.70;99.90;;;;;;1881162;75;21523;-84
2023/05/17 14:28:19;;;;;;;3.42;1.10;;;14.70;99.90;;;;;;1882168;75;21161;-84
2023/05/17 14:31:10;;;;;;;2.92;1.10;;;14.70;99.90;;;;;;1882732;75;21063;-85
2023/05/17 14:34:02;;;;;;;4.85;1.20;;;14.80;99.90;;;;;;1887543;75;21094;-84
2023/05/17 14:36:56;;;;;;;2.62;1.05;;;14.80;99.90;;;;;;1893383;75;21099;-83
2023/05/17 14:39:48;;;;;;;3.72;1.30;;;14.90;99.90;;;;;;1877415;75;21346;-83
2023/05/17 14:42:42;;;;;;;3.55;1.00;;;14.70;99.90;;;;;;1894259;75;21156;-83
2023/05/17 14:45:36;;;;;;;4.55;1.50;;;14.70;99.90;;;;;;1898332;75;21172;-84
2023/05/17 14:48:29;;;;;;;4.70;1.30;;;14.70;99.90;;;;;;1896777;75;21143;-83
2023/05/17 14:51:21;;;;;;;3.80;1.10;;;14.70;99.90;;;;;;1894371;75;21092;-83
2023/05/17 14:54:12;;;;;;;3.00;1.10;;;14.70;99.90;;;;;;1893630;75;21144;-83
2023/05/17 14:57:04;;;;;;;2.37;0.82;;;14.80;99.90;;;;;;1896657;75;21097;-84
2023/05/17 14:59:56;;;;;;;2.37;0.90;;;14.90;99.90;;;;;;1898273;75;21205;-84
2023/05/17 15:02:48;;;;;;;5.15;1.40;;;14.90;99.90;;;;;;1894119;75;21102;-83
2023/05/17 15:05:40;;;;;;;3.87;1.45;;;15.00;99.90;;;;;;1894087;75;21125;-83
2023/05/17 15:08:32;;;;;;;3.30;1.02;;;14.90;99.90;;;;;;1894195;75;21619;-83
2023/05/17 15:11:24;;;;;;;4.42;1.10;;;14.80;99.90;;;;;;1899933;75;21118;-83
2023/05/17 15:14:20;;;;;;;4.55;1.15;;;14.80;99.90;;;;;;1895164;75;21053;-83
2023/05/17 15:17:09;;;;;;;2.15;1.20;;;14.90;99.90;;;;;;1894200;75;21181;-83
2023/05/17 15:20:01;;;;;;;6.42;1.70;;;14.90;99.90;;;;;;1892795;75;21204;-83
2023/05/17 15:22:53;;;;;;;3.85;1.72;;;15.00;99.90;;;;;;1902142;75;21143;-83
2023/05/17 15:25:45;;;;;;;3.33;1.55;;;15.10;99.90;;;;;;1902931;75;21136;-83